sensor_id;sensor_type;location;lat;lon;timestamp;P1;durP1;ratioP1;P2;durP2;ratioP2
22017;SDS011;11173;51.050;7.108;2023-12-04T00:03:43;14.20;;;11.13;;
22017;SDS011;11173;51.050;7.108;2023-12-04T00:13:43;14.23;;;11.38;;
22017;SDS011;11173;51.050;7.108;2023-12-04T00:23:43;16.13;;;11.57;;
22017;SDS011;11173;51.050;7.108;2023-12-04T00:33:43;14.13;;;10.85;;
22017;SDS011;11173;51.050;7.108;2023-12-04T00:43:44;13.65;;;10.27;;
22017;SDS011;11173;51.050;7.108;2023-12-04T00:53:44;12.70;;;9.85;;
22017;SDS011;11173;51.050;7.108;2023-12-04T01:03:44;13.20;;;10.82;;
22017;SDS011;11173;51.050;7.108;2023-12-04T01:13:45;11.70;;;9.85;;
22017;SDS011;11173;51.050;7.108;2023-12-04T01:23:45;13.00;;;10.77;;
22017;SDS011;11173;51.050;7.108;2023-12-04T01:33:46;10.85;;;9.20;;
22017;SDS011;11173;51.050;7.108;2023-12-04T01:43:46;11.07;;;9.15;;
22017;SDS011;11173;51.050;7.108;2023-12-04T01:53:46;13.23;;;10.60;;
22017;SDS011;11173;51.050;7.108;2023-12-04T02:03:47;9.25;;;8.18;;
22017;SDS011;11173;51.050;7.108;2023-12-04T02:13:48;10.95;;;8.50;;
22017;SDS011;11173;51.050;7.108;2023-12-04T02:23:49;11.27;;;9.90;;
22017;SDS011;11173;51.050;7.108;2023-12-04T02:33:49;11.48;;;8.90;;
22017;SDS011;11173;51.050;7.108;2023-12-04T02:43:52;9.45;;;8.38;;
22017;SDS011;11173;51.050;7.108;2023-12-04T02:53:52;10.13;;;8.07;;
22017;SDS011;11173;51.050;7.108;2023-12-04T03:03:52;12.13;;;9.52;;
22017;SDS011;11173;51.050;7.108;2023-12-04T03:13:53;14.98;;;9.98;;
22017;SDS011;11173;51.050;7.108;2023-12-04T03:23:53;9.50;;;8.00;;
22017;SDS011;11173;51.050;7.108;2023-12-04T03:33:53;8.55;;;7.47;;
22017;SDS011;11173;51.050;7.108;2023-12-04T03:43:54;9.73;;;8.40;;
22017;SDS011;11173;51.050;7.108;2023-12-04T03:53:54;8.98;;;8.07;;
22017;SDS011;11173;51.050;7.108;2023-12-04T04:03:54;11.52;;;8.77;;
22017;SDS011;11173;51.050;7.108;2023-12-04T04:13:54;10.55;;;8.57;;
22017;SDS011;11173;51.050;7.108;2023-12-04T04:23:55;11.60;;;9.38;;
22017;SDS011;11173;51.050;7.108;2023-12-04T04:33:55;12.32;;;10.05;;
22017;SDS011;11173;51.050;7.108;2023-12-04T04:43:55;11.27;;;9.10;;
22017;SDS011;11173;51.050;7.108;2023-12-04T04:53:56;10.73;;;9.23;;
22017;SDS011;11173;51.050;7.108;2023-12-04T05:03:56;11.27;;;9.52;;
22017;SDS011;11173;51.050;7.108;2023-12-04T05:13:56;10.65;;;9.48;;
22017;SDS011;11173;51.050;7.108;2023-12-04T05:23:57;10.25;;;8.80;;
22017;SDS011;11173;51.050;7.108;2023-12-04T05:33:57;10.23;;;8.95;;
22017;SDS011;11173;51.050;7.108;2023-12-04T05:43:57;16.27;;;9.52;;
22017;SDS011;11173;51.050;7.108;2023-12-04T05:54:00;10.77;;;9.02;;
22017;SDS011;11173;51.050;7.108;2023-12-04T06:04:00;13.77;;;9.98;;
22017;SDS011;11173;51.050;7.108;2023-12-04T06:14:01;11.75;;;10.02;;
22017;SDS011;11173;51.050;7.108;2023-12-04T06:24:01;14.43;;;11.25;;
22017;SDS011;11173;51.050;7.108;2023-12-04T06:34:02;10.93;;;9.70;;
22017;SDS011;11173;51.050;7.108;2023-12-04T06:44:02;13.82;;;9.95;;
22017;SDS011;11173;51.050;7.108;2023-12-04T06:54:02;10.70;;;9.07;;
22017;SDS011;11173;51.050;7.108;2023-12-04T07:04:03;11.65;;;9.98;;
22017;SDS011;11173;51.050;7.108;2023-12-04T07:14:09;10.43;;;9.27;;
22017;SDS011;11173;51.050;7.108;2023-12-04T07:24:10;9.20;;;8.27;;
22017;SDS011;11173;51.050;7.108;2023-12-04T07:34:10;7.03;;;6.32;;
22017;SDS011;11173;51.050;7.108;2023-12-04T07:44:10;6.78;;;6.05;;
22017;SDS011;11173;51.050;7.108;2023-12-04T07:54:10;8.63;;;7.13;;
22017;SDS011;11173;51.050;7.108;2023-12-04T08:04:11;7.53;;;6.72;;
22017;SDS011;11173;51.050;7.108;2023-12-04T08:14:11;10.23;;;7.20;;
22017;SDS011;11173;51.050;7.108;2023-12-04T08:24:12;7.30;;;6.47;;
22017;SDS011;11173;51.050;7.108;2023-12-04T08:34:12;6.88;;;5.90;;
22017;SDS011;11173;51.050;7.108;2023-12-04T08:44:13;6.85;;;6.15;;
22017;SDS011;11173;51.050;7.108;2023-12-04T08:54:13;7.43;;;6.43;;
22017;SDS011;11173;51.050;7.108;2023-12-04T09:04:13;6.85;;;6.22;;
22017;SDS011;11173;51.050;7.108;2023-12-04T09:14:13;7.07;;;6.38;;
22017;SDS011;11173;51.050;7.108;2023-12-04T09:24:14;6.88;;;6.13;;
22017;SDS011;11173;51.050;7.108;2023-12-04T09:34:14;7.38;;;6.53;;
22017;SDS011;11173;51.050;7.108;2023-12-04T09:44:15;7.70;;;6.90;;
22017;SDS011;11173;51.050;7.108;2023-12-04T09:54:22;7.43;;;6.55;;
22017;SDS011;11173;51.050;7.108;2023-12-04T10:04:23;6.97;;;6.07;;
22017;SDS011;11173;51.050;7.108;2023-12-04T10:14:24;7.70;;;6.78;;
22017;SDS011;11173;51.050;7.108;2023-12-04T10:24:32;6.15;;;5.55;;
22017;SDS011;11173;51.050;7.108;2023-12-04T10:34:33;5.55;;;5.07;;
22017;SDS011;11173;51.050;7.108;2023-12-04T10:44:36;5.05;;;4.65;;
22017;SDS011;11173;51.050;7.108;2023-12-04T10:54:40;6.90;;;6.20;;
22017;SDS011;11173;51.050;7.108;2023-12-04T11:04:41;6.35;;;5.75;;
22017;SDS011;11173;51.050;7.108;2023-12-04T11:14:42;6.78;;;6.07;;
22017;SDS011;11173;51.050;7.108;2023-12-04T11:24:43;5.07;;;4.57;;
22017;SDS011;11173;51.050;7.108;2023-12-04T11:34:49;5.25;;;4.82;;
22017;SDS011;11173;51.050;7.108;2023-12-04T11:44:56;5.88;;;5.32;;
22017;SDS011;11173;51.050;7.108;2023-12-04T12:05:00;6.78;;;6.10;;
22017;SDS011;11173;51.050;7.108;2023-12-04T12:15:00;6.63;;;5.97;;
22017;SDS011;11173;51.050;7.108;2023-12-04T12:25:01;7.35;;;6.65;;
22017;SDS011;11173;51.050;7.108;2023-12-04T12:35:05;6.68;;;6.03;;
22017;SDS011;11173;51.050;7.108;2023-12-04T12:45:07;7.43;;;6.72;;
22017;SDS011;11173;51.050;7.108;2023-12-04T12:55:10;9.25;;;7.78;;
22017;SDS011;11173;51.050;7.108;2023-12-04T13:05:10;6.57;;;5.78;;
22017;SDS011;11173;51.050;7.108;2023-12-04T13:15:13;5.57;;;5.10;;
22017;SDS011;11173;51.050;7.108;2023-12-04T13:25:13;6.93;;;6.22;;
22017;SDS011;11173;51.050;7.108;2023-12-04T13:35:14;6.28;;;5.65;;
22017;SDS011;11173;51.050;7.108;2023-12-04T13:45:14;6.18;;;5.50;;
22017;SDS011;11173;51.050;7.108;2023-12-04T13:55:14;6.35;;;5.75;;
22017;SDS011;11173;51.050;7.108;2023-12-04T14:05:20;8.07;;;6.82;;
22017;SDS011;11173;51.050;7.108;2023-12-04T14:15:22;6.40;;;5.80;;
22017;SDS011;11173;51.050;7.108;2023-12-04T14:25:22;6.88;;;6.18;;
22017;SDS011;11173;51.050;7.108;2023-12-04T14:35:22;5.35;;;4.85;;
22017;SDS011;11173;51.050;7.108;2023-12-04T14:45:22;5.70;;;5.20;;
22017;SDS011;11173;51.050;7.108;2023-12-04T14:55:23;5.35;;;4.85;;
22017;SDS011;11173;51.050;7.108;2023-12-04T15:05:23;4.78;;;4.38;;
22017;SDS011;11173;51.050;7.108;2023-12-04T15:15:42;5.57;;;5.07;;
22017;SDS011;11173;51.050;7.108;2023-12-04T15:26:00;4.83;;;4.50;;
22017;SDS011;11173;51.050;7.108;2023-12-04T15:36:04;4.32;;;4.03;;
22017;SDS011;11173;51.050;7.108;2023-12-04T15:46:04;3.90;;;3.60;;
22017;SDS011;11173;51.050;7.108;2023-12-04T15:56:06;5.50;;;5.00;;
22017;SDS011;11173;51.050;7.108;2023-12-04T16:06:08;6.75;;;6.05;;
22017;SDS011;11173;51.050;7.108;2023-12-04T16:16:08;5.78;;;5.28;;
22017;SDS011;11173;51.050;7.108;2023-12-04T16:26:08;6.03;;;5.50;;
22017;SDS011;11173;51.050;7.108;2023-12-04T16:36:10;5.20;;;4.80;;
22017;SDS011;11173;51.050;7.108;2023-12-04T16:46:11;6.22;;;5.63;;
22017;SDS011;11173;51.050;7.108;2023-12-04T16:56:12;6.95;;;6.28;;
22017;SDS011;11173;51.050;7.108;2023-12-04T17:06:12;5.95;;;5.40;;
22017;SDS011;11173;51.050;7.108;2023-12-04T17:16:13;5.85;;;5.43;;
22017;SDS011;11173;51.050;7.108;2023-12-04T17:26:14;5.47;;;4.97;;
22017;SDS011;11173;51.050;7.108;2023-12-04T17:36:14;5.80;;;5.30;;
22017;SDS011;11173;51.050;7.108;2023-12-04T17:46:14;5.82;;;5.32;;
22017;SDS011;11173;51.050;7.108;2023-12-04T17:56:15;6.45;;;5.07;;
22017;SDS011;11173;51.050;7.108;2023-12-04T18:06:24;5.55;;;4.97;;
22017;SDS011;11173;51.050;7.108;2023-12-04T18:16:24;7.20;;;6.27;;
22017;SDS011;11173;51.050;7.108;2023-12-04T18:26:24;6.47;;;5.88;;
22017;SDS011;11173;51.050;7.108;2023-12-04T18:36:26;6.43;;;5.82;;
22017;SDS011;11173;51.050;7.108;2023-12-04T18:46:28;5.88;;;5.28;;
22017;SDS011;11173;51.050;7.108;2023-12-04T18:56:29;5.45;;;5.05;;
22017;SDS011;11173;51.050;7.108;2023-12-04T19:06:30;5.03;;;4.63;;
22017;SDS011;11173;51.050;7.108;2023-12-04T19:16:30;5.50;;;5.00;;
22017;SDS011;11173;51.050;7.108;2023-12-04T19:26:30;6.03;;;5.43;;
22017;SDS011;11173;51.050;7.108;2023-12-04T19:36:30;6.97;;;6.38;;
22017;SDS011;11173;51.050;7.108;2023-12-04T19:46:31;5.95;;;5.45;;
22017;SDS011;11173;51.050;7.108;2023-12-04T19:56:31;4.43;;;4.07;;
22017;SDS011;11173;51.050;7.108;2023-12-04T20:06:31;4.78;;;4.00;;
22017;SDS011;11173;51.050;7.108;2023-12-04T20:16:31;6.60;;;6.00;;
22017;SDS011;11173;51.050;7.108;2023-12-04T20:26:32;5.53;;;5.03;;
22017;SDS011;11173;51.050;7.108;2023-12-04T20:36:32;5.75;;;5.25;;
22017;SDS011;11173;51.050;7.108;2023-12-04T20:46:32;4.95;;;4.53;;
22017;SDS011;11173;51.050;7.108;2023-12-04T20:56:33;4.95;;;4.55;;
22017;SDS011;11173;51.050;7.108;2023-12-04T21:06:33;5.97;;;5.47;;
22017;SDS011;11173;51.050;7.108;2023-12-04T21:16:35;5.55;;;5.05;;
22017;SDS011;11173;51.050;7.108;2023-12-04T21:26:36;5.55;;;5.15;;
22017;SDS011;11173;51.050;7.108;2023-12-04T21:36:36;6.07;;;5.50;;
22017;SDS011;11173;51.050;7.108;2023-12-04T21:46:36;5.30;;;4.82;;
22017;SDS011;11173;51.050;7.108;2023-12-04T21:56:36;5.80;;;5.30;;
22017;SDS011;11173;51.050;7.108;2023-12-04T22:06:37;6.40;;;5.80;;
22017;SDS011;11173;51.050;7.108;2023-12-04T22:16:37;5.70;;;5.20;;
22017;SDS011;11173;51.050;7.108;2023-12-04T22:26:37;6.43;;;5.85;;
22017;SDS011;11173;51.050;7.108;2023-12-04T22:36:37;5.68;;;5.18;;
22017;SDS011;11173;51.050;7.108;2023-12-04T22:46:38;5.38;;;4.97;;
22017;SDS011;11173;51.050;7.108;2023-12-04T22:56:39;5.82;;;5.32;;
22017;SDS011;11173;51.050;7.108;2023-12-04T23:06:39;6.18;;;5.68;;
22017;SDS011;11173;51.050;7.108;2023-12-04T23:16:42;5.68;;;5.18;;
22017;SDS011;11173;51.050;7.108;2023-12-04T23:26:43;6.32;;;5.65;;
22017;SDS011;11173;51.050;7.108;2023-12-04T23:36:43;6.50;;;5.90;;
22017;SDS011;11173;51.050;7.108;2023-12-04T23:46:43;6.32;;;5.70;;
22017;SDS011;11173;51.050;7.108;2023-12-04T23:56:43;5.60;;;5.10;;
